<?xml version='1.0' encoding='UTF-8'?><gpx version="1.1" creator="JPX - https://github.com/jenetics/jpx" xmlns="http://www.topografix.com/GPX/1/1"><trk><trkseg><trkpt lat="44.5340072" lon="7.3964913"><ele>956.0</ele><time>2026-04-03T09:49:37.909Z</time></trkpt><trkpt lat="44.5340416" lon="7.3966041"><ele>956.0</ele><time>2026-04-03T09:50:34.409Z</time></trkpt><trkpt lat="44.5335667" lon="7.39339"><ele>971.0</ele><time>2026-04-03T09:57:42.417Z</time></trkpt><trkpt lat="44.5335895" lon="7.3932863"><ele>986.0</ele><time>2026-04-03T09:57:44.417Z</time></trkpt><trkpt lat="44.5347577" lon="7.3948002"><ele>1025.0</ele><time>2026-04-03T10:06:47.891Z</time></trkpt></trkseg><trkseg><trkpt lat="44.5347503" lon="7.3948621"><ele>1025.0</ele><time>2026-04-03T10:47:47.865Z</time></trkpt><trkpt lat="44.5346485" lon="7.3949068"><ele>1025.0</ele><time>2026-04-03T10:47:48.864Z</time></trkpt><trkpt lat="44.5346299" lon="7.3948163"><ele>1025.0</ele><time>2026-04-03T10:47:50.865Z</time></trkpt></trkseg><trkseg><trkpt lat="44.5602049" lon="7.3879308"><ele>745.0</ele><time>2026-04-03T12:59:40.868Z</time></trkpt><trkpt lat="44.5601764" lon="7.3878255"><ele>745.0</ele><time>2026-04-03T12:59:57.814Z</time></trkpt><trkpt lat="44.5693281" lon="7.3637306"><ele>568.0</ele><time>2026-04-03T13:10:57.11Z</time></trkpt><trkpt lat="44.5642938" lon="7.3842132"><ele>568.0</ele><time>2026-04-03T13:15:44.509Z</time></trkpt><trkpt lat="44.5641362" lon="7.3840201"><ele>568.0</ele><time>2026-04-03T13:15:45.509Z</time></trkpt><trkpt lat="44.5640675" lon="7.3839676"><ele>568.0</ele><time>2026-04-03T13:15:46.509Z</time></trkpt><trkpt lat="44.5639601" lon="7.3839445"><ele>568.0</ele><time>2026-04-03T13:15:47.509Z</time></trkpt><trkpt lat="44.5638891" lon="7.3839489"><ele>556.0</ele><time>2026-04-03T13:15:49.815Z</time></trkpt><trkpt lat="44.5621167" lon="7.3942644"><ele>562.0</ele><time>2026-04-03T13:25:58.115Z</time></trkpt><trkpt lat="44.56191" lon="7.3951282"><ele>562.0</ele><time>2026-04-03T13:26:36.643Z</time></trkpt><trkpt lat="44.5618597" lon="7.3949319"><ele>562.0</ele><time>2026-04-03T13:26:43.355Z</time></trkpt></trkseg></trk></gpx>